Time;durP1;ratioP1;P1;durP2;ratioP2;P2;SDS_P1;SDS_P2;PMS_P1;PMS_P2;Temp;Humidity;BMP_temperature;BMP_pressure;BME280_temperature;BME280_humidity;BME280_pressure;Samples;Min_cycle;Max_cycle;Signal;HPM_P1;HPM_P2
2022/09/01 00:04:45;;;;;;;4.47;1.35;;;;;;;13.60;63.49;101001.66;3364592;83;21052;-82
2022/09/01 00:09:36;;;;;;;3.77;1.50;;;;;;;13.46;63.55;100995.44;3313881;83;21506;-83
2022/09/01 00:14:32;;;;;;;1.30;1.20;;;;;;;13.34;63.72;100998.38;3339392;83;21171;-82
2022/09/01 00:19:24;;;;;;;4.22;1.72;;;;;;;13.19;63.91;100996.87;3342223;83;21076;-82
2022/09/01 00:24:17;;;;;;;2.95;1.50;;;;;;;13.03;64.06;100999.73;3324820;84;20997;-82
2022/09/01 00:29:08;;;;;;;2.45;1.12;;;;;;;12.81;64.26;101000.36;3342583;83;21435;-82
2022/09/01 00:34:00;;;;;;;1.52;1.25;;;;;;;12.71;64.48;101001.96;3364742;82;22006;-82
2022/09/01 00:38:51;;;;;;;2.00;1.15;;;;;;;12.61;64.85;101000.98;3364085;83;21009;-82
2022/09/01 00:43:47;;;;;;;2.50;1.27;;;;;;;12.52;64.92;101000.43;3334592;83;21024;-82
2022/09/01 00:48:38;;;;;;;3.15;1.60;;;;;;;12.42;65.01;100991.16;3342407;83;20985;-82
2022/09/01 00:53:32;;;;;;;1.35;1.15;;;;;;;12.32;65.11;101007.98;3302712;84;21004;-82
2022/09/01 00:58:23;;;;;;;2.02;1.40;;;;;;;12.22;65.19;101006.52;3291626;82;21042;-83
2022/09/01 01:03:15;;;;;;;1.17;1.00;;;;;;;12.10;65.44;101004.16;3359813;84;21061;-83
2022/09/01 01:08:08;;;;;;;1.45;1.10;;;;;;;12.08;65.75;101008.91;3335752;83;20973;-82
2022/09/01 01:13:03;;;;;;;2.80;1.00;;;;;;;11.98;65.55;101002.66;3341566;84;21080;-82
2022/09/01 01:17:52;;;;;;;1.72;1.22;;;;;;;11.85;65.77;101014.58;3360404;83;21000;-82
2022/09/01 01:23:15;;;;;;;1.32;1.20;;;;;;;11.79;66.20;101013.19;3338659;83;22038;-82
2022/09/01 01:28:30;;;;;;;3.50;1.17;;;;;;;11.78;66.50;101004.48;3361757;83;21684;-82
2022/09/01 01:33:28;;;;;;;1.10;1.07;;;;;;;11.76;66.33;101001.41;3338548;82;20930;-82
2022/09/01 01:38:21;;;;;;;2.52;1.22;;;;;;;11.67;66.37;101000.83;3296050;83;21042;-82
2022/09/01 01:43:18;;;;;;;4.50;1.72;;;;;;;11.57;66.33;101002.41;3314516;83;39270;-82
2022/09/01 01:48:09;;;;;;;3.05;1.20;;;;;;;11.50;66.61;100998.34;3324141;84;21149;-82
2022/09/01 01:53:05;;;;;;;1.47;1.17;;;;;;;11.38;66.65;101002.50;3323390;83;21630;-82
2022/09/01 01:57:59;;;;;;;1.57;1.42;;;;;;;11.22;66.48;100996.56;3358814;83;21017;-82
2022/09/01 02:02:52;;;;;;;0.80;0.78;;;;;;;11.12;67.00;100997.22;3372891;82;20981;-82
2022/09/01 02:07:43;;;;;;;2.30;1.40;;;;;;;11.11;67.16;100995.05;3312172;82;21012;-82
2022/09/01 02:12:36;;;;;;;1.17;1.07;;;;;;;11.07;67.28;100991.95;3364106;84;21470;-82
2022/09/01 02:17:27;;;;;;;1.95;1.17;;;;;;;10.96;67.35;100984.34;3344615;83;20997;-83
2022/09/01 02:22:20;;;;;;;2.22;1.30;;;;;;;10.92;67.31;100987.30;3291867;83;21593;-82
2022/09/01 02:27:11;;;;;;;1.35;1.20;;;;;;;10.90;67.63;100987.70;3377422;83;21480;-82
2022/09/01 02:32:03;;;;;;;0.70;0.70;;;;;;;10.88;67.86;100982.89;3377837;83;21163;-82
2022/09/01 02:36:57;;;;;;;1.52;1.07;;;;;;;10.77;67.41;100989.62;3362615;83;21198;-82
2022/09/01 02:41:50;;;;;;;1.55;1.22;;;;;;;10.70;67.61;100983.83;3343953;83;20957;-82
2022/09/01 02:46:45;;;;;;;3.02;1.37;;;;;;;10.63;67.59;100988.02;3336835;83;20969;-82
2022/09/01 02:51:37;;;;;;;1.47;1.20;;;;;;;10.60;67.99;100986.22;3361497;83;20972;-81
2022/09/01 02:56:28;;;;;;;1.77;1.30;;;;;;;10.55;67.87;100994.77;3330058;83;22243;-82
2022/09/01 03:01:30;;;;;;;3.65;2.35;;;;;;;10.45;67.90;100992.41;3350244;83;21965;-82
2022/09/01 03:06:23;;;;;;;4.67;2.77;;;;;;;10.39;67.78;100988.35;3318444;83;21045;-82
2022/09/01 03:11:14;;;;;;;3.02;2.67;;;;;;;10.34;67.84;100987.37;3331268;84;20989;-81
2022/09/01 03:16:07;;;;;;;2.95;2.33;;;;;;;10.30;68.30;100989.89;3346342;83;21037;-81
2022/09/01 03:21:01;;;;;;;2.50;2.27;;;;;;;10.32;68.47;100996.86;3296953;83;21265;-82
2022/09/01 03:25:53;;;;;;;2.27;1.77;;;;;;;10.33;68.84;100999.49;3276684;83;22802;-81
2022/09/01 03:30:52;;;;;;;2.77;1.90;;;;;;;10.20;68.40;100997.44;3331934;83;20989;-82
2022/09/01 03:35:45;;;;;;;2.45;2.20;;;;;;;10.20;68.40;100997.44;3309424;84;21449;-81
2022/09/01 03:40:36;;;;;;;3.37;2.25;;;;;;;10.14;68.30;100999.87;3357149;83;21012;-81
2022/09/01 03:45:29;;;;;;;2.00;1.80;;;;;;;10.10;68.50;101010.63;3303335;84;21064;-82
2022/09/01 03:50:24;;;;;;;3.45;2.15;;;;;;;10.09;68.64;101007.16;3280952;84;22304;-81
2022/09/01 03:55:22;;;;;;;1.30;1.17;;;;;;;10.10;69.01;101006.73;3302067;84;21053;-83
2022/09/01 04:00:21;;;;;;;2.70;1.52;;;;;;;10.14;69.49;101005.98;3339494;83;20995;-81
2022/09/01 04:05:06;;;;;;;1.77;1.10;;;;;;;10.12;69.18;100993.34;3318561;84;21530;-81
2022/09/01 04:09:58;;;;;;;1.40;1.30;;;;;;;10.12;69.18;100993.34;3308072;83;21558;-81
2022/09/01 04:14:49;;;;;;;2.27;1.42;;;;;;;10.09;70.01;100994.59;3330040;82;21256;-82
2022/09/01 04:19:41;;;;;;;3.55;1.98;;;;;;;10.09;70.01;100994.59;3313672;83;21652;-82
2022/09/01 04:24:34;;;;;;;2.55;1.80;;;;;;;10.12;70.22;100992.05;3334987;83;21005;-81
2022/09/01 04:29:27;;;;;;;1.87;1.70;;;;;;;10.12;70.22;100992.05;3294846;84;21004;-81
2022/09/01 04:34:21;;;;;;;1.50;1.35;;;;;;;10.15;70.01;101002.52;3343682;82;21021;-81
2022/09/01 04:39:12;;;;;;;1.60;1.40;;;;;;;10.18;70.40;101003.90;3332253;83;22084;-81
2022/09/01 04:44:06;;;;;;;3.60;1.45;;;;;;;10.18;70.40;101003.90;3312190;83;21004;-81
2022/09/01 04:49:05;;;;;;;3.83;1.47;;;;;;;10.20;70.48;100999.61;3364718;82;21546;-82
2022/09/01 04:53:58;;;;;;;2.45;1.50;;;;;;;10.24;70.62;100994.93;3321211;83;20969;-82
2022/09/01 04:58:54;;;;;;;2.22;1.50;;;;;;;10.28;70.94;101008.47;3313436;84;22824;-81
2022/09/01 05:03:47;;;;;;;4.03;2.08;;;;;;;10.35;71.31;101001.70;3356946;83;22195;-81
2022/09/01 05:08:46;;;;;;;2.80;1.50;;;;;;;10.57;71.69;101004.38;3344992;83;21041;-81
2022/09/01 05:13:40;;;;;;;1.82;1.25;;;;;;;10.57;71.69;101004.38;3353308;84;21017;-81
2022/09/01 05:18:32;;;;;;;1.85;1.50;;;;;;;10.66;71.79;101004.56;3302912;82;21197;-81
2022/09/01 05:23:25;;;;;;;3.67;1.40;;;;;;;10.76;71.96;101006.05;3339557;83;21092;-81
2022/09/01 05:28:18;;;;;;;3.00;1.65;;;;;;;10.86;72.03;101006.70;3309739;84;21053;-81
2022/09/01 05:33:15;;;;;;;2.40;1.70;;;;;;;10.98;72.38;101012.16;3315974;84;21211;-81
2022/09/01 05:38:04;;;;;;;1.67;1.35;;;;;;;11.10;72.15;101008.90;3332938;83;21546;-81
2022/09/01 05:42:56;;;;;;;4.50;1.52;;;;;;;11.21;71.74;100998.70;3341860;84;20941;-81
2022/09/01 05:47:49;;;;;;;3.40;1.52;;;;;;;11.35;71.82;100998.53;3322001;83;21360;-81
2022/09/01 05:52:43;;;;;;;2.70;1.32;;;;;;;11.48;71.59;101002.66;3289400;82;22164;-81
2022/09/01 05:57:35;;;;;;;4.03;1.30;;;;;;;11.59;71.67;100997.23;3311222;84;21529;-81
2022/09/01 06:02:28;;;;;;;3.15;1.42;;;;;;;11.72;71.49;101000.48;3341911;82;21621;-81
2022/09/01 06:07:22;;;;;;;1.32;1.12;;;;;;;11.82;71.34;100998.48;3305222;83;21001;-81
2022/09/01 06:12:16;;;;;;;2.58;1.02;;;;;;;11.96;71.25;101004.37;3369442;82;21058;-81
2022/09/01 06:17:09;;;;;;;5.00;1.10;;;;;;;12.08;71.18;101001.95;3309614;84;21067;-81
2022/09/01 06:22:01;;;;;;;1.98;1.00;;;;;;;12.21;70.79;101005.62;3320479;83;21011;-81
2022/09/01 06:26:53;;;;;;;1.10;0.80;;;;;;;12.37;70.42;101009.33;3345326;82;21199;-81
2022/09/01 06:31:50;;;;;;;2.83;1.75;;;;;;;12.50;70.19;101002.14;3364296;83;20985;-81
2022/09/01 06:36:39;;;;;;;3.55;0.82;;;;;;;12.68;69.65;101005.83;3375624;82;21013;-81
2022/09/01 06:41:31;;;;;;;2.42;0.80;;;;;;;13.02;68.80;101004.94;3314849;83;21605;-81
2022/09/01 06:46:26;;;;;;;1.62;0.80;;;;;;;13.27;68.52;101009.59;3297680;84;21033;-81
2022/09/01 06:51:21;;;;;;;0.80;0.80;;;;;;;13.37;68.37;101014.94;3353496;83;20956;-81
2022/09/01 06:56:13;;;;;;;0.93;0.65;;;;;;;13.47;67.68;101012.87;3232911;86;20999;-81
2022/09/01 07:01:14;;;;;;;2.17;0.70;;;;;;;13.57;67.34;101013.38;3271957;85;20963;-82
2022/09/01 07:06:05;;;;;;;5.83;0.90;;;;;;;13.73;66.73;101017.02;3299793;85;22248;-82
2022/09/01 07:11:12;;;;;;;2.77;0.90;;;;;;;14.07;66.25;101015.54;3130631;88;21643;-82
2022/09/01 07:16:05;;;;;;;1.72;0.65;;;;;;;14.24;66.00;101015.67;3151569;89;21003;-82
2022/09/01 07:20:59;;;;;;;2.92;0.70;;;;;;;14.84;65.33;101013.42;3118283;88;21083;-82
2022/09/01 07:25:54;;;;;;;1.02;0.60;;;;;;;16.17;63.52;101010.57;3152327;88;21012;-82
2022/09/01 07:30:52;;;;;;;1.70;0.80;;;;;;;16.57;62.76;101003.05;3190297;86;21006;-82
2022/09/01 07:35:44;;;;;;;2.77;0.70;;;;;;;18.29;59.69;101003.70;3166868;87;21101;-84
2022/09/01 07:40:40;;;;;;;2.77;0.50;;;;;;;18.61;59.27;100998.07;3190320;87;21059;-84
2022/09/01 07:45:45;;;;;;;0.55;0.55;;;;;;;17.96;60.18;101012.81;3199232;84;21463;-81
2022/09/01 07:50:46;;;;;;;2.08;0.82;;;;;;;17.82;59.56;101000.59;3333648;83;21530;-83
2022/09/01 07:55:34;;;;;;;1.77;0.60;;;;;;;17.66;59.49;100996.35;3343187;83;22022;-83
2022/09/01 08:00:27;;;;;;;0.90;0.40;;;;;;;17.57;58.77;100999.06;3325717;83;20989;-83
2022/09/01 08:05:25;;;;;;;0.55;0.40;;;;;;;17.46;58.84;101006.57;3320946;83;21120;-84
2022/09/01 08:10:13;;;;;;;1.42;0.60;;;;;;;17.67;57.97;101002.02;3335991;83;20974;-84
2022/09/01 08:15:08;;;;;;;3.47;0.80;;;;;;;17.75;57.60;101005.48;3353524;83;20955;-84
2022/09/01 08:20:00;;;;;;;1.85;0.60;;;;;;;17.78;57.42;101014.67;3348562;83;21152;-82
2022/09/01 08:25:08;;;;;;;1.10;0.50;;;;;;;18.00;56.93;101006.63;3344495;83;21012;-81
2022/09/01 08:29:59;;;;;;;1.20;0.60;;;;;;;18.60;56.07;100997.66;3302003;83;21021;-81
2022/09/01 08:34:50;;;;;;;1.77;0.50;;;;;;;19.33;54.92;101001.55;3299457;83;21025;-81
2022/09/01 08:39:45;;;;;;;0.75;0.68;;;;;;;18.95;55.61;101000.32;3369601;83;20977;-81
2022/09/01 08:44:45;;;;;;;1.55;0.42;;;;;;;18.36;55.67;101007.14;3319040;84;21561;-81
2022/09/01 08:49:39;;;;;;;0.70;0.65;;;;;;;17.98;56.25;101017.16;3333154;84;21005;-81
2022/09/01 08:54:45;;;;;;;1.65;0.53;;;;;;;18.04;55.83;101006.56;3336224;83;21007;-81
2022/09/01 08:59:36;;;;;;;1.60;1.30;;;;;;;17.90;56.01;101001.45;3348950;83;21557;-81
2022/09/01 09:04:40;;;;;;;1.70;0.80;;;;;;;18.58;54.59;100995.50;3324933;83;20980;-81
2022/09/01 09:09:40;;;;;;;0.82;0.47;;;;;;;18.91;54.49;100979.33;3306225;83;20933;-81
2022/09/01 09:14:48;;;;;;;2.10;0.60;;;;;;;19.01;54.50;100987.08;3331548;83;21578;-81
2022/09/01 09:19:41;;;;;;;1.52;0.70;;;;;;;18.63;54.01;100998.92;3391083;82;20962;-81
2022/09/01 09:24:50;;;;;;;0.62;0.50;;;;;;;18.25;54.24;100996.28;3284752;84;21017;-81
2022/09/01 09:29:41;;;;;;;2.20;0.70;;;;;;;18.26;54.32;100984.88;3307281;84;21009;-81
2022/09/01 09:34:40;;;;;;;1.75;0.57;;;;;;;18.28;53.78;100977.83;3350535;84;21162;-81
2022/09/01 09:39:31;;;;;;;0.88;0.50;;;;;;;18.45;53.39;100968.87;3311259;84;21526;-81
2022/09/01 09:44:30;;;;;;;0.57;0.50;;;;;;;18.37;53.50;100978.18;3319203;84;20988;-81
2022/09/01 09:49:31;;;;;;;2.95;0.80;;;;;;;18.36;53.04;100965.03;3351129;83;20979;-81
2022/09/01 09:54:30;;;;;;;0.65;0.50;;;;;;;18.67;52.31;100959.83;3331780;84;21427;-81
2022/09/01 09:59:29;;;;;;;2.10;0.40;;;;;;;19.35;52.50;100962.87;3321045;83;21207;-81
2022/09/01 10:04:35;;;;;;;0.80;0.60;;;;;;;20.97;48.85;100962.99;3357927;83;22119;-82
2022/09/01 10:09:31;;;;;;;0.60;0.60;;;;;;;22.38;46.55;100963.47;3332141;84;20985;-81
2022/09/01 10:14:42;;;;;;;1.22;0.70;;;;;;;25.37;42.18;100949.77;3292506;84;20946;-81
2022/09/01 10:19:34;;;;;;;0.60;0.60;;;;;;;28.55;39.08;100938.32;3344542;84;21029;-81
2022/09/01 10:24:34;;;;;;;1.12;0.40;;;;;;;29.56;37.58;100937.89;3342101;84;21191;-79
2022/09/01 10:29:36;;;;;;;1.52;0.50;;;;;;;28.66;37.67;100938.58;3316699;84;21448;-78
2022/09/01 10:34:33;;;;;;;0.80;0.60;;;;;;;26.32;38.16;100952.83;3298303;84;21541;-78
2022/09/01 10:39:24;;;;;;;1.15;0.80;;;;;;;27.58;37.30;100949.56;3309422;84;20969;-79
2022/09/01 10:44:33;;;;;;;1.62;0.93;;;;;;;30.53;34.69;100937.87;3319005;83;21112;-78
2022/09/01 10:49:32;;;;;;;0.60;0.60;;;;;;;29.89;35.03;100947.59;3308208;83;21986;-78
2022/09/01 10:54:44;;;;;;;0.80;0.75;;;;;;;28.65;35.05;100943.52;3309145;83;21024;-78
2022/09/01 10:59:35;;;;;;;2.35;1.47;;;;;;;30.41;32.48;100938.19;3354193;84;21037;-78
2022/09/01 11:04:38;;;;;;;0.65;0.57;;;;;;;29.01;33.95;100941.07;3345745;83;20977;-78
2022/09/01 11:09:43;;;;;;;1.75;0.68;;;;;;;28.98;33.63;100938.59;3342103;83;20961;-78
2022/09/01 11:15:00;;;;;;;3.12;0.78;;;;;;;30.41;32.18;100938.19;3340037;83;21885;-78
2022/09/01 11:20:11;;;;;;;0.70;0.70;;;;;;;30.27;32.58;100934.13;3310448;83;20969;-79
2022/09/01 11:25:42;;;;;;;1.85;0.60;;;;;;;29.96;33.31;100931.98;3351054;83;21380;-79
2022/09/01 11:30:51;;;;;;;0.65;0.60;;;;;;;31.14;31.03;100929.06;3340361;84;20973;-78
2022/09/01 11:35:45;;;;;;;0.62;0.50;;;;;;;30.82;30.93;100928.42;3335518;84;21614;-79
2022/09/01 11:40:36;;;;;;;0.60;0.60;;;;;;;29.50;31.96;100920.86;3328484;83;21006;-78
2022/09/01 11:45:32;;;;;;;0.40;0.40;;;;;;;27.37;33.08;100936.81;3323968;83;21004;-78
2022/09/01 11:50:31;;;;;;;;;;;;;;;26.80;33.76;100935.05;3290439;83;21535;-78
2022/09/01 11:55:39;;;;;;;2.25;0.95;;;;;;;26.72;33.53;100933.23;3355423;83;20159;-78
2022/09/01 12:00:38;;;;;;;0.85;0.40;;;;;;;25.05;34.03;100944.78;3357507;83;20941;-80
2022/09/01 12:05:34;;;;;;;3.33;0.78;;;;;;;23.88;34.82;100950.44;3373873;83;21849;-81
2022/09/01 12:10:37;;;;;;;0.47;0.40;;;;;;;23.55;36.43;100951.08;3309898;83;21001;-81
2022/09/01 12:15:29;;;;;;;0.40;0.40;;;;;;;23.91;36.39;100951.67;3344261;84;20959;-80
2022/09/01 12:20:31;;;;;;;1.40;0.80;;;;;;;23.06;36.84;100950.03;3281466;83;20997;-80
2022/09/01 12:25:27;;;;;;;0.53;0.53;;;;;;;22.66;37.02;100946.78;3299025;82;21575;-82
2022/09/01 12:30:21;;;;;;;0.80;0.70;;;;;;;23.32;38.05;100938.57;3361456;83;23777;-82
2022/09/01 12:35:23;;;;;;;1.65;0.70;;;;;;;23.72;37.02;100935.94;3310663;83;20946;-84
2022/09/01 12:40:33;;;;;;;1.60;0.80;;;;;;;24.13;37.23;100913.72;3362574;83;20992;-90
2022/09/01 12:45:44;;;;;;;1.25;0.60;;;;;;;23.36;35.73;100931.80;3304071;83;20953;-87
2022/09/01 12:50:42;;;;;;;0.90;0.78;;;;;;;22.36;36.74;100934.83;3321035;83;21013;-89
2022/09/01 12:55:35;;;;;;;0.60;0.60;;;;;;;21.84;37.50;100928.30;3330775;83;22380;-89
2022/09/01 13:00:31;;;;;;;1.62;0.57;;;;;;;22.53;36.33;100926.84;3326179;83;21447;-86
2022/09/01 13:05:36;;;;;;;1.47;0.70;;;;;;;23.25;37.39;100914.05;3336531;83;21016;-85
2022/09/01 13:10:36;;;;;;;1.07;0.60;;;;;;;22.97;36.50;100915.36;3355092;83;20980;-85
2022/09/01 13:15:27;;;;;;;0.60;0.60;;;;;;;22.18;36.29;100919.44;3342815;83;21060;-86
2022/09/01 13:20:19;;;;;;;1.15;0.57;;;;;;;21.46;37.00;100915.14;3310369;83;20925;-86
2022/09/01 13:25:17;;;;;;;0.60;0.50;;;;;;;21.14;37.57;100911.94;3364165;83;21507;-88
2022/09/01 13:30:11;;;;;;;1.72;0.47;;;;;;;22.19;39.36;100907.45;3276856;84;21029;-86
2022/09/01 13:35:03;;;;;;;0.95;0.65;;;;;;;23.20;37.61;100900.07;3323147;84;20930;-88
2022/09/01 13:39:54;;;;;;;0.40;0.40;;;;;;;23.03;35.81;100900.56;3304977;84;21008;-85
2022/09/01 13:44:46;;;;;;;2.17;0.80;;;;;;;22.52;35.89;100912.73;3315938;84;20925;-85
2022/09/01 13:49:37;;;;;;;0.62;0.62;;;;;;;21.68;36.39;100919.42;3238802;84;20993;-82
2022/09/01 13:54:28;;;;;;;0.55;0.42;;;;;;;21.08;37.22;100922.64;3316039;83;21503;-84
2022/09/01 13:59:19;;;;;;;2.35;0.93;;;;;;;20.71;37.59;100920.81;3321218;83;21035;-88
2022/09/01 14:04:10;;;;;;;1.05;0.95;;;;;;;20.42;38.37;100924.91;3348578;82;21752;-82
2022/09/01 14:09:01;;;;;;;1.05;0.70;;;;;;;20.29;38.99;100928.72;3303576;84;21070;-83
2022/09/01 14:13:52;;;;;;;0.62;0.62;;;;;;;20.53;39.29;100925.58;3349366;83;20962;-83
2022/09/01 14:18:43;;;;;;;0.55;0.55;;;;;;;20.33;39.26;100925.96;3305484;84;20965;-82
2022/09/01 14:23:34;;;;;;;1.22;0.75;;;;;;;20.04;39.55;100933.14;3354039;84;20961;-83
2022/09/01 14:28:26;;;;;;;0.50;0.50;;;;;;;20.65;39.44;100924.47;3362156;83;20969;-83
2022/09/01 14:33:23;;;;;;;0.68;0.60;;;;;;;21.47;39.46;100920.83;3342877;84;21193;-84
2022/09/01 14:38:12;;;;;;;1.75;0.60;;;;;;;22.09;39.43;100914.80;3317831;84;21255;-83
2022/09/01 14:43:08;;;;;;;2.35;0.80;;;;;;;22.55;38.54;100917.06;3324570;83;20958;-84
2022/09/01 14:48:01;;;;;;;0.50;0.50;;;;;;;22.68;38.50;100907.84;3344271;84;20977;-84
2022/09/01 14:52:55;;;;;;;1.00;0.50;;;;;;;22.78;37.68;100918.56;3316463;84;21467;-84
2022/09/01 14:57:46;;;;;;;1.42;0.60;;;;;;;22.05;37.10;100921.09;3322489;83;21546;-85
2022/09/01 15:02:40;;;;;;;2.08;1.22;;;;;;;21.38;37.26;100926.78;3353716;83;21060;-86
2022/09/01 15:07:31;;;;;;;2.20;1.40;;;;;;;20.74;38.37;100926.90;3259780;84;20946;-85
2022/09/01 15:12:23;;;;;;;1.32;0.70;;;;;;;20.53;38.64;100929.97;3327402;83;20974;-82
2022/09/01 15:17:14;;;;;;;0.50;0.50;;;;;;;20.86;38.40;100928.41;3313979;84;21040;-87
2022/09/01 15:22:07;;;;;;;0.62;0.60;;;;;;;21.22;38.36;100925.82;3295574;83;21479;-82
2022/09/01 15:26:58;;;;;;;0.78;0.68;;;;;;;21.61;38.70;100921.81;3302021;84;21000;-85
2022/09/01 15:31:49;;;;;;;0.60;0.60;;;;;;;21.54;38.17;100922.02;3304977;84;21562;-82
2022/09/01 15:36:41;;;;;;;1.00;0.65;;;;;;;21.72;37.91;100922.00;3290918;83;21103;-81
2022/09/01 15:41:33;;;;;;;2.17;0.70;;;;;;;21.80;37.17;100920.00;3282286;83;21033;-81
2022/09/01 15:46:30;;;;;;;1.85;0.78;;;;;;;21.78;37.24;100913.42;3328798;83;21459;-84
2022/09/01 15:51:29;;;;;;;1.10;0.70;;;;;;;21.70;37.62;100912.31;3298620;84;20977;-86
2022/09/01 15:56:22;;;;;;;0.95;0.80;;;;;;;21.70;37.30;100907.02;3303425;84;21008;-80
2022/09/01 16:01:13;;;;;;;1.52;0.80;;;;;;;21.64;37.50;100912.48;3327263;83;20969;-80
2022/09/01 16:06:06;;;;;;;0.60;0.60;;;;;;;21.54;37.21;100913.62;3331311;83;21052;-80
2022/09/01 16:10:57;;;;;;;1.12;0.60;;;;;;;21.42;38.20;100908.14;3317730;84;23226;-80
2022/09/01 16:15:57;;;;;;;0.88;0.80;;;;;;;21.27;37.78;100899.28;3256667;84;20942;-80
2022/09/01 16:21:09;;;;;;;1.55;0.55;;;;;;;21.08;37.51;100903.67;3329130;84;21007;-80
2022/09/01 16:26:00;;;;;;;0.68;0.40;;;;;;;20.83;37.41;100911.30;3301317;83;21026;-80
2022/09/01 16:30:56;;;;;;;0.53;0.50;;;;;;;20.53;37.99;100911.05;3320947;83;21056;-80
2022/09/01 16:36:06;;;;;;;0.83;0.50;;;;;;;20.33;38.61;100914.55;3323513;83;22525;-80
2022/09/01 16:41:22;;;;;;;0.50;0.50;;;;;;;20.09;39.02;100914.13;3352365;83;20998;-80
2022/09/01 16:46:22;;;;;;;4.22;0.95;;;;;;;19.74;39.50;100920.92;3304120;83;21063;-80
2022/09/01 16:51:24;;;;;;;1.00;0.88;;;;;;;19.42;40.05;100918.80;3320446;84;21574;-80
2022/09/01 16:56:33;;;;;;;1.45;1.35;;;;;;;19.12;40.51;100914.88;3282140;84;21516;-79
2022/09/01 17:01:51;;;;;;;0.90;0.90;;;;;;;18.85;41.16;100919.66;3314000;83;21312;-80
2022/09/01 17:07:11;;;;;;;2.08;0.78;;;;;;;18.56;42.22;100923.52;3342195;83;21112;-79
2022/09/01 17:12:22;;;;;;;0.55;0.47;;;;;;;18.23;42.73;100932.27;3317303;84;21059;-79
2022/09/01 17:17:18;;;;;;;2.12;0.60;;;;;;;17.93;43.92;100937.41;3337559;84;21030;-79
2022/09/01 17:22:13;;;;;;;1.90;0.72;;;;;;;17.62;44.45;100939.43;3308156;83;21054;-79
2022/09/01 17:27:25;;;;;;;3.72;0.90;;;;;;;17.38;45.23;100939.17;3284803;85;21893;-79
2022/09/01 17:33:07;;;;;;;2.92;1.10;;;;;;;17.15;46.07;100946.76;3319553;83;21596;-79
2022/09/01 17:38:17;;;;;;;1.67;0.95;;;;;;;16.88;46.51;100947.80;3346632;84;21088;-79
2022/09/01 17:43:51;;;;;;;2.92;2.22;;;;;;;16.54;47.07;100964.57;3336992;83;20943;-79
2022/09/01 17:48:57;;;;;;;0.95;0.82;;;;;;;16.30;47.65;100970.75;3323339;84;21040;-79
2022/09/01 17:54:02;;;;;;;1.65;0.80;;;;;;;16.07;47.83;100983.91;3304266;84;21211;-79
2022/09/01 17:59:11;;;;;;;3.75;0.82;;;;;;;15.86;48.32;100988.73;3347912;83;21044;-80
2022/09/01 18:04:34;;;;;;;1.60;0.98;;;;;;;15.67;48.63;100997.02;3332875;83;21047;-80
2022/09/01 18:09:27;;;;;;;1.70;1.15;;;;;;;15.48;49.31;100997.42;3348851;83;20966;-80
2022/09/01 18:14:42;;;;;;;2.55;0.70;;;;;;;15.31;49.71;101009.62;3294198;84;21349;-80
2022/09/01 18:19:41;;;;;;;2.55;0.72;;;;;;;15.17;50.28;101009.16;3338653;83;20973;-80
2022/09/01 18:24:50;;;;;;;1.92;1.00;;;;;;;15.06;50.69;101017.43;3322260;83;21441;-80
2022/09/01 18:29:42;;;;;;;3.17;1.05;;;;;;;14.97;51.15;101017.38;3288891;83;21056;-79
2022/09/01 18:35:10;;;;;;;1.05;0.85;;;;;;;14.85;51.96;101032.17;3330754;84;21526;-79
2022/09/01 18:40:18;;;;;;;4.78;1.67;;;;;;;14.77;52.18;101039.55;3357268;83;20986;-79
2022/09/01 18:45:37;;;;;;;10.60;2.17;;;;;;;14.70;52.49;101032.53;3306888;83;21629;-80
2022/09/01 18:50:43;;;;;;;5.28;1.20;;;;;;;14.64;52.73;101033.37;3311175;83;21030;-79
2022/09/01 18:55:43;;;;;;;3.02;1.10;;;;;;;14.61;53.77;101046.44;3319280;85;21007;-79
2022/09/01 19:00:42;;;;;;;2.85;1.20;;;;;;;14.53;53.65;101045.50;3358952;83;21001;-79
2022/09/01 19:06:01;;;;;;;2.08;1.52;;;;;;;14.45;53.82;101055.90;3335175;83;20978;-79
2022/09/01 19:11:04;;;;;;;2.42;1.27;;;;;;;14.38;54.35;101055.01;3228214;85;21199;-79
2022/09/01 19:16:34;;;;;;;3.60;2.00;;;;;;;14.31;54.42;101054.52;3120625;89;21023;-79
2022/09/01 19:21:31;;;;;;;2.37;1.30;;;;;;;14.20;54.59;101054.86;3141559;88;21539;-79
2022/09/01 19:26:26;;;;;;;4.47;1.93;;;;;;;14.03;54.98;101062.14;3110494;89;21545;-79
2022/09/01 19:31:37;;;;;;;8.05;6.53;;;;;;;13.94;55.36;101065.98;3120604;89;21316;-79
2022/09/01 19:36:36;;;;;;;4.78;4.35;;;;;;;13.80;55.33;101063.69;3140999;89;22029;-79
2022/09/01 19:41:36;;;;;;;2.65;2.02;;;;;;;13.69;55.85;101068.37;3136185;88;22154;-80
2022/09/01 19:46:48;;;;;;;6.03;2.10;;;;;;;13.58;56.29;101058.69;3157957;87;21082;-79
2022/09/01 19:51:54;;;;;;;6.87;1.65;;;;;;;13.52;56.21;101067.31;3279598;83;21005;-79
2022/09/01 19:57:12;;;;;;;11.10;2.87;;;;;;;13.45;56.49;101066.80;3347856;83;21479;-79
2022/09/01 20:02:29;;;;;;;4.30;1.67;;;;;;;13.32;56.74;101081.06;3247014;83;21687;-79
2022/09/01 20:07:47;;;;;;;8.93;1.82;;;;;;;13.12;56.98;101079.90;3291482;83;21078;-79
2022/09/01 20:12:48;;;;;;;;;;;;;;;13.01;57.16;101090.64;3300455;83;21069;-79
2022/09/01 20:17:56;;;;;;;5.75;1.82;;;;;;;12.95;57.33;101100.14;3207088;84;20351;-79
2022/09/01 20:23:16;;;;;;;5.67;1.77;;;;;;;12.85;57.53;101102.61;3281171;83;21491;-79
2022/09/01 20:28:48;;;;;;;5.62;2.00;;;;;;;12.72;57.49;101101.56;3297704;83;21513;-79
2022/09/01 20:33:53;;;;;;;6.00;1.77;;;;;;;12.60;57.87;101103.55;3311185;82;21539;-79
2022/09/01 20:44:15;;;;;;;4.90;2.20;;;;;;;12.37;58.73;101117.11;3327612;83;20985;-79
2022/09/01 20:49:10;;;;;;;3.90;2.92;;;;;;;12.20;58.66;101122.50;3301469;82;20943;-79
2022/09/01 20:54:09;;;;;;;7.58;2.70;;;;;;;12.07;59.09;101122.69;3311822;84;21826;-79
2022/09/01 20:59:21;;;;;;;5.65;2.67;;;;;;;11.88;59.05;101120.60;3302750;84;20981;-79
2022/09/01 21:04:51;;;;;;;6.33;1.92;;;;;;;11.76;59.80;101129.05;3332762;83;21026;-79
2022/09/01 21:10:00;;;;;;;3.55;2.25;;;;;;;11.64;60.17;101129.69;3331032;81;21073;-79
2022/09/01 21:15:11;;;;;;;6.87;2.67;;;;;;;11.56;60.50;101139.09;3325743;83;21058;-79
2022/09/01 21:20:38;;;;;;;6.65;2.37;;;;;;;11.45;60.87;101133.24;3354042;83;21045;-79
2022/09/01 21:25:29;;;;;;;7.08;2.65;;;;;;;11.38;61.15;101136.58;3373898;83;21556;-79
2022/09/01 21:30:23;;;;;;;12.23;2.95;;;;;;;11.23;61.32;101145.36;3343405;82;21112;-79
2022/09/01 21:40:09;;;;;;;3.52;1.82;;;;;;;11.10;61.84;101144.22;3623128;77;21961;-80
2022/09/01 21:45:04;;;;;;;10.38;2.50;;;;;;;11.03;62.06;101153.61;3443382;80;22011;-80
2022/09/01 21:49:55;;;;;;;3.67;2.33;;;;;;;11.01;62.00;101159.63;3429563;80;21523;-80
2022/09/01 21:54:47;;;;;;;5.53;2.20;;;;;;;10.93;62.03;101158.17;3480552;80;21519;-80
2022/09/01 21:59:38;;;;;;;5.40;2.15;;;;;;;10.85;62.05;101161.01;3432959;80;21054;-79
2022/09/01 22:04:31;;;;;;;4.87;2.67;;;;;;;10.80;62.26;101162.63;3421881;80;21017;-80
2022/09/01 22:09:22;;;;;;;5.78;2.70;;;;;;;10.75;62.58;101160.33;3470008;80;22168;-79
2022/09/01 22:14:14;;;;;;;5.92;2.90;;;;;;;10.79;62.75;101171.28;3411580;80;20983;-79
2022/09/01 22:19:05;;;;;;;3.98;2.12;;;;;;;10.82;62.86;101170.03;3474449;80;21423;-79
2022/09/01 22:23:57;;;;;;;4.92;2.27;;;;;;;10.77;62.95;101165.17;3441412;80;21687;-79
2022/09/01 22:28:49;;;;;;;2.35;1.90;;;;;;;10.73;63.08;101160.72;3423581;80;20972;-79
2022/09/01 22:33:40;;;;;;;5.60;3.10;;;;;;;10.71;63.12;101170.21;3422594;80;21824;-79
2022/09/01 22:38:32;;;;;;;4.07;2.13;;;;;;;10.69;63.50;101162.37;3491025;80;20950;-79
2022/09/01 22:43:25;;;;;;;6.25;2.85;;;;;;;10.68;63.32;101168.00;3413277;80;21446;-79
2022/09/01 22:48:20;;;;;;;4.92;2.67;;;;;;;10.66;63.51;101168.39;3456282;80;20963;-79
2022/09/01 22:53:13;;;;;;;6.97;2.90;;;;;;;10.60;63.46;101165.63;3494634;78;21010;-79
2022/09/01 22:58:09;;;;;;;7.22;2.40;;;;;;;10.46;63.48;101172.22;3483737;80;21437;-79
2022/09/01 23:03:02;;;;;;;7.70;2.60;;;;;;;10.39;63.59;101166.41;3398490;80;21077;-79
2022/09/01 23:07:54;;;;;;;2.90;2.20;;;;;;;10.21;63.65;101166.39;3394129;80;20976;-79
2022/09/01 23:12:45;;;;;;;4.42;2.80;;;;;;;10.13;64.05;101170.50;3483780;80;21045;-79
2022/09/01 23:17:37;;;;;;;4.92;2.72;;;;;;;10.08;63.91;101172.09;3479129;79;20994;-79
2022/09/01 23:22:28;;;;;;;4.62;2.83;;;;;;;9.96;64.02;101168.73;3466858;79;21574;-80